Flight Track Log - Related Links

Times and Time Zones

All times are in EDT time to prevent confusion due to time zone crossing. See the N5920V flight status page for this flight to view local times or setup timezone preferences in your user account.

Time Position Orientation Groundspeed Altitude Reporting Facility
EDT Latitude Longitude Course Direction KTS MPH feet Rate Location/Type
Sun 03:44:17 PM 32.1575 -80.9219 214° Southwest 134 154 10,400  Level Jacksonville Center
Sun 03:45:17 PM 32.1286 -80.9447 214° Southwest 140 161 10,400  Level Jacksonville Center
Sun 03:46:17 PM 32.0978 -80.9700 215° Southwest 147 169 10,400  Level Jacksonville Center
Sun 03:47:17 PM 32.0606 -80.9953 210° Southwest 147 169 10,400  Level Jacksonville Center
Sun 03:48:17 PM 32.0275 -81.0156 207° Southwest 147 169 10,400  Level Jacksonville Center
Sun 03:49:17 PM 31.9944 -81.0406 213° Southwest 142 163 10,400  Level Jacksonville Center
Sun 03:50:17 PM 31.9611 -81.0536 198° South 142 163 10,400 50 Level Jacksonville Center
Sun 03:51:17 PM 31.9236 -81.0667 196° South 142 163 10,500  Climbing Jacksonville Center
Sun 03:52:17 PM 31.8844 -81.0869 204° Southwest 142 163 10,400 -50 Descending Jacksonville Center
Sun 03:53:17 PM 31.8514 -81.1119 213° Southwest 147 169 10,400 50 Level Jacksonville Center
Sun 03:54:17 PM 31.8183 -81.1347 210° Southwest 147 169 10,500 50 Climbing Jacksonville Center
Sun 03:55:17 PM 31.7892 -81.1547 210° Southwest 142 163 10,500 -100 Level Jacksonville Center
Sun 03:56:17 PM 31.7561 -81.1797 213° Southwest 142 163 10,300 -300 Descending Jacksonville Center
Sun 03:57:17 PM 31.7169 -81.2075 211° Southwest 142 163 9,900 -400 Descending Jacksonville Center
Sun 03:58:17 PM 31.6839 -81.2347 215° Southwest 147 169 9,500 -350 Descending Jacksonville Center
Sun 03:59:17 PM 31.6508 -81.2622 215° Southwest 147 169 9,200 -300 Descending Jacksonville Center
Sun 04:00:17 PM 31.6197 -81.2872 214° Southwest 147 169 8,900 -300 Descending Jacksonville Center
Sun 04:01:17 PM 31.5847 -81.3194 218° Southwest 147 169 8,600 -250 Descending Jacksonville Center
Sun 04:02:17 PM 31.5581 -81.3492 224° Southwest 147 169 8,400 -100 Descending Jacksonville Center
Sun 04:03:17 PM 31.5333 -81.3814 228° Southwest 135 155 8,400 50 Level Jacksonville Center
Sun 04:04:17 PM 31.5128 -81.4108 231° Southwest 130 150 8,500  Climbing Jacksonville Center
Sun 04:05:17 PM 31.4922 -81.4428 233° Southwest 130 150 8,400 -50 Descending Jacksonville Center
Sun 04:06:17 PM 31.4592 -81.4728 218° Southwest 135 155 8,400  Level Jacksonville Center
Sun 04:07:17 PM 31.4281 -81.4950 211° Southwest 140 161 8,400  Level Jacksonville Center
Sun 04:08:17 PM 31.3906 -81.5103 199° South 140 161 8,400  Level Jacksonville Center
Sun 04:09:17 PM 31.3594 -81.5228 199° South 140 161 8,400  Level Jacksonville Center
Sun 04:10:17 PM 31.3242 -81.5381 200° South 140 161 8,400 50 Level Jacksonville Center
Sun 04:11:17 PM 31.2803 -81.5483 191° South 145 167 8,500 50 Climbing Jacksonville Center
Sun 04:12:17 PM 31.2431 -81.5586 193° South 145 167 8,500  Level Jacksonville Center
Sun 04:12:41 PM 31.2264 -81.5611 187° South 140 161 8,500  Level Jacksonville Center
Sun 04:13:17 PM 31.2033 -81.5639 186° South 145 167 8,500  Level Jacksonville Center
Sun 04:14:17 PM 31.1678 -81.5644 181° South 145 167 8,500  Level Jacksonville Center
Sun 04:15:00 PM 31.1322 -81.5578 171° South 150 173 8,500  Level Jacksonville Center
Sun 04:15:17 PM 31.1219 -81.5553 168° South 145 167 8,500  Level Jacksonville Center
Sun 04:16:01 PM 31.0906 -81.5486 170° South 153 176 8,500  Level Jacksonville Center
Sun 04:16:17 PM 31.0800 -81.5464 170° South 150 173 8,500 -111 Level Jacksonville Center
Sun 04:16:55 PM 31.0547 -81.5369 162° South 153 176 8,400 -100 Descending Jacksonville Center
Sun 04:17:17 PM 31.0381 -81.5372 181° South 160 184 8,400  Level Jacksonville Center
Sun 04:17:44 PM 31.0172 -81.5303 164° South 157 181 8,400  Level Jacksonville Center
Sun 04:18:17 PM 30.9942 -81.5281 175° South 160 184 8,400  Level Jacksonville Center
Sun 04:18:50 PM 30.9711 -81.5211 166° South 155 178 8,400  Level Jacksonville Center
Sun 04:19:17 PM 30.9544 -81.5167 167° South 160 184 8,400 98 Level Jacksonville Center
Sun 04:19:51 PM 30.9292 -81.5097 167° South 155 178 8,500  Climbing Jacksonville Center
Sun 04:20:17 PM 30.9125 -81.5028 160° South 160 184 8,400 -70 Descending Jacksonville Center
Sun 04:21:17 PM 30.8706 -81.4864 161° South 160 184 8,400 -63 Level Jacksonville Center
Sun 04:21:52 PM 30.8453 -81.4747 158° South 156 180 8,300  Descending Jacksonville Center
Sun 04:22:17 PM 30.8286 -81.4678 160° South 160 184 8,400 197 Climbing Jacksonville Center
Sun 04:22:53 PM 30.8056 -81.4558 156° South 158 182 8,500 63 Climbing Jacksonville Center
Sun 04:23:53 PM 30.7636 -81.4419 164° South 150 173 8,500  Level Jacksonville Center
Sun 04:24:54 PM 30.7217 -81.4356 173° South 152 175 8,500  Level Jacksonville Center
Sun 04:25:55 PM 30.6800 -81.4311 175° South 148 170 8,500  Level Jacksonville Center
Sun 04:26:55 PM 30.6361 -81.4294 178° South 149 171 8,500  Level Jacksonville Center
Sun 04:27:56 PM 30.5942 -81.4300 181° South 146 168 8,500  Level Jacksonville Center
Sun 04:28:57 PM 30.5567 -81.4331 184° South 142 163 8,500 -50 Level Jacksonville Center
Sun 04:29:57 PM 30.5172 -81.4408 190° South 145 167 8,400  Descending Jacksonville Center
Sun 04:30:52 PM 30.4839 -81.4511 195° South 134 154 8,500 52 Climbing Jacksonville Center
Sun 04:31:53 PM 30.4444 -81.4636 195° South 135 155 8,500 -94 Level Jacksonville Center
Sun 04:32:59 PM 30.4025 -81.4644 181° South 142 163 8,300 -283 Descending Jacksonville Center
Sun 04:34:00 PM 30.3589 -81.4722 189° South 148 170 7,900 -99 Descending Jacksonville Center
Sun 04:35:00 PM 30.3214 -81.4847 196° South 126 145 8,100 -94 Climbing Jacksonville Center
Sun 04:36:07 PM 30.2858 -81.4733 165° South 139 160 7,700 -492 Descending Jacksonville Center
Sun 04:37:02 PM 30.2583 -81.4497 143° Southeast 123 142 7,100 -843 Descending Jacksonville Center
Sun 04:38:08 PM 30.2833 -81.4469 North 135 155 6,000 -902 Descending Jacksonville Center
Sun 04:39:15 PM 30.2667 -81.4447 173° South 88 101 5,100 -729 Descending Jacksonville Center
Sun 04:40:28 PM 30.2789 -81.4133 66° East 139 160 4,300 -645 Descending Jacksonville Center
Sun 04:41:16 PM 30.2556 -81.3967 148° Southeast 124 143 3,800 -716 Descending Jacksonville Center
Sun 04:42:17 PM 30.2242 -81.3853 163° South 128 147 3,000 -738 Descending Jacksonville Center
Sun 04:43:18 PM 30.1906 -81.3642 152° Southeast 121 139 2,300 -472 Descending Jacksonville Center
Sun 04:44:24 PM 30.1592 -81.3478 156° South 110 127 2,000 -236 Descending Jacksonville Center
Sun 04:45:25 PM 30.1275 -81.3364 163° South 111 128 1,800 -234 Descending Jacksonville Center
Sun 04:46:32 PM 30.0983 -81.3392 185° South 99 114 1,500 -298 Descending Jacksonville Center
Sun 04:47:26 PM 30.0711 -81.3325 168° South 107 123 1,200 -248 Descending Jacksonville Center
Sun 04:48:33 PM 30.0397 -81.3233 166° South 109 125 1,000 -99 Descending Jacksonville Center
Sun 04:49:27 PM 30.0147 -81.3214 176° South 103 119 1,000 -52 Level Jacksonville Center
Sun 04:50:28 PM 29.9894 -81.3169 171° South 98 113 900 -98 Descending Jacksonville Center
Sun 04:51:29 PM 29.9603 -81.3078 165° South 97 112 800 -98 Descending Jacksonville Center
Sun 04:53:00 PM 29.9040 -81.3232 187° South  Level FlightAware Approximate
Sun 05:00:00 PM 29.6494 -81.3616 188° South  Level FlightAware Approximate
Sun 05:01:00 PM 29.6131 -81.3669 184° South  Level FlightAware Approximate
Sun 05:02:00 PM 29.5764 -81.3696 184° South  Level FlightAware Approximate
Sun 05:03:00 PM 29.5398 -81.3722 184° South  Level FlightAware Approximate
Sun 05:04:00 PM 29.5032 -81.3748 184° South  Level FlightAware Approximate
Sun 05:05:00 PM 29.4666 -81.3774 184° South  Level FlightAware Approximate
Sun 05:06:00 PM 29.4300 -81.3800 184° South  Level FlightAware Approximate
Sun 05:07:00 PM 29.3934 -81.3826 184° South  Level FlightAware Approximate
Sun 05:08:00 PM 29.3569 -81.3864 186° South  Level FlightAware Approximate
Sun 05:09:00 PM 29.3204 -81.3906 186° South  Level FlightAware Approximate
Sun 05:10:00 PM 29.2839 -81.3949 186° South  Level FlightAware Approximate
Sun 05:11:00 PM 29.2474 -81.3991 186° South  Level FlightAware Approximate
Sun 05:12:00 PM 29.2109 -81.4033 186° South  Level FlightAware Approximate
Sun 05:13:00 PM 29.1744 -81.4075 186° South  Level FlightAware Approximate
Sun 05:14:00 PM 29.1379 -81.4117 186° South  Level FlightAware Approximate
Sun 05:15:00 PM 29.1014 -81.4159 186° South  Level FlightAware Approximate
Sun 05:16:00 PM 29.0649 -81.4201 186° South  Level FlightAware Approximate
Sun 05:17:00 PM 29.0284 -81.4243 186° South  Level FlightAware Approximate
Sun 05:18:00 PM 28.9919 -81.4285 186° South  Level FlightAware Approximate
Sun 05:19:00 PM 28.9554 -81.4327 186° South  Level FlightAware Approximate
Sun 05:20:00 PM 28.9190 -81.4376 187° South  Level FlightAware Approximate
Sun 05:21:00 PM 28.8826 -81.4426 187° South  Level FlightAware Approximate
Sun 05:22:00 PM 28.8461 -81.4475 187° South  Level FlightAware Approximate
Sun 05:23:00 PM 28.8097 -81.4525 187° South  Level FlightAware Approximate
Sun 05:24:00 PM 28.7733 -81.4575 187° South  Level FlightAware Approximate
Sun 05:25:00 PM 28.7369 -81.4624 187° South  Level FlightAware Approximate
Sun 05:26:00 PM 28.7005 -81.4674 187° South  Level FlightAware Approximate
Sun 05:27:00 PM 28.6640 -81.4724 187° South  Level FlightAware Approximate
Sun 05:28:00 PM 28.6276 -81.4773 187° South  Level FlightAware Approximate
Sun 05:29:00 PM 28.5912 -81.4823 187° South  Level FlightAware Approximate
Sun 05:30:00 PM 28.5548 -81.4872 187° South  Level FlightAware Approximate
Sun 05:31:00 PM 28.5184 -81.4922 187° South  Level FlightAware Approximate
Sun 05:32:00 PM 28.4820 -81.4971 187° South  Level FlightAware Approximate
Sun 05:33:00 PM 28.4455 -81.5021 187° South  Level FlightAware Approximate
Sun 05:34:00 PM 28.4091 -81.5070 187° South  Level FlightAware Approximate
Sun 05:35:00 PM 28.3727 -81.5119 187° South  Level FlightAware Approximate
Sun 05:36:00 PM 28.3363 -81.5169 187° South  Level FlightAware Approximate
Sun 05:37:00 PM 28.2999 -81.5218 187° South  Level FlightAware Approximate
Sun 05:38:00 PM 28.2634 -81.5267 187° South  Level FlightAware Approximate
Sun 05:39:00 PM 28.2270 -81.5316 187° South  Level FlightAware Approximate
Sun 05:40:00 PM 28.1906 -81.5365 187° South  Level FlightAware Approximate
Sun 05:41:00 PM 28.1542 -81.5414 187° South  Level FlightAware Approximate
Sun 05:42:00 PM 28.1178 -81.5463 187° South  Level FlightAware Approximate
Sun 05:43:00 PM 28.0813 -81.5512 187° South  Level FlightAware Approximate
Sun 05:44:00 PM 28.0449 -81.5562 187° South  Level FlightAware Approximate
Sun 05:45:00 PM 28.0085 -81.5611 187° South  Level FlightAware Approximate
Sun 05:46:00 PM 27.9721 -81.5659 187° South  Level FlightAware Approximate
Sun 05:47:00 PM 27.9355 -81.5700 185° South  Level FlightAware Approximate
Sun 05:48:00 PM 27.8990 -81.5740 185° South  Level FlightAware Approximate
Sun 05:49:00 PM 27.8625 -81.5779 185° South  Level FlightAware Approximate
Sun 05:50:00 PM 27.8260 -81.5818 185° South  Level FlightAware Approximate
Sun 05:51:00 PM 27.7894 -81.5857 185° South  Level FlightAware Approximate
Sun 05:52:00 PM 27.7529 -81.5896 185° South  Level FlightAware Approximate
Sun 05:53:00 PM 27.7164 -81.5935 185° South  Level FlightAware Approximate
Sun 05:54:00 PM 27.6799 -81.5974 185° South  Level FlightAware Approximate
Sun 05:55:00 PM 27.6434 -81.6013 185° South  Level FlightAware Approximate
Sun 05:56:00 PM 27.6068 -81.6053 185° South  Level FlightAware Approximate
Sun 05:57:00 PM 27.5703 -81.6092 185° South  Level FlightAware Approximate
Sun 05:58:00 PM 27.5338 -81.6131 185° South  Level FlightAware Approximate
Sun 05:59:00 PM 27.4973 -81.6170 186° South  Level FlightAware Approximate
Sun 06:00:00 PM 27.4608 -81.6210 186° South  Level FlightAware Approximate
Sun 06:01:00 PM 27.4243 -81.6251 186° South  Level FlightAware Approximate
Sun 06:02:00 PM 27.3878 -81.6292 186° South  Level FlightAware Approximate
Sun 06:03:00 PM 27.3513 -81.6332 186° South  Level FlightAware Approximate
Sun 06:04:00 PM 27.3148 -81.6373 186° South  Level FlightAware Approximate
Sun 06:05:00 PM 27.2783 -81.6413 186° South  Level FlightAware Approximate
Sun 06:06:00 PM 27.2418 -81.6454 186° South  Level FlightAware Approximate
Sun 06:07:00 PM 27.2053 -81.6495 186° South  Level FlightAware Approximate
Sun 06:08:00 PM 27.1688 -81.6535 186° South  Level FlightAware Approximate
Sun 06:09:00 PM 27.1323 -81.6575 186° South  Level FlightAware Approximate
Sun 06:10:00 PM 27.0958 -81.6616 186° South  Level FlightAware Approximate
Sun 06:11:00 PM 27.0593 -81.6656 186° South  Level FlightAware Approximate
Sun 06:12:00 PM 27.0228 -81.6699 186° South  Level FlightAware Approximate
Sun 06:13:00 PM 26.9863 -81.6742 186° South  Level FlightAware Approximate
Sun 06:14:00 PM 26.9498 -81.6785 186° South  Level FlightAware Approximate
Sun 06:15:00 PM 26.9133 -81.6828 186° South  Level FlightAware Approximate
Sun 06:16:00 PM 26.8769 -81.6871 186° South  Level FlightAware Approximate
Sun 06:17:00 PM 26.8404 -81.6915 186° South  Level FlightAware Approximate
Sun 06:18:00 PM 26.8039 -81.6958 186° South  Level FlightAware Approximate
Sun 06:19:00 PM 26.7674 -81.7001 186° South  Level FlightAware Approximate
Sun 06:20:00 PM 26.7309 -81.7044 186° South  Level FlightAware Approximate
Sun 06:21:00 PM 26.6945 -81.7087 186° South  Level FlightAware Approximate
Sun 06:22:00 PM 26.6580 -81.7130 186° South  Level FlightAware Approximate
Sun 06:23:00 PM 26.6215 -81.7173 186° South  Level FlightAware Approximate
Sun 06:24:00 PM 26.5850 -81.7215 186° South  Level FlightAware Approximate
Sun 06:25:00 PM 26.5485 -81.7258 186° South  Level FlightAware Approximate
Sun 06:26:00 PM 26.5121 -81.7301 186° South  Level FlightAware Approximate
Sun 06:27:00 PM 26.4756 -81.7344 186° South  Level FlightAware Approximate
Sun 06:28:00 PM 26.4391 -81.7387 186° South  Level FlightAware Approximate
Sun 06:29:00 PM 26.4026 -81.7430 186° South  Level FlightAware Approximate
Sun 06:30:00 PM 26.3661 -81.7472 186° South  Level FlightAware Approximate
Sun 06:31:00 PM 26.3297 -81.7515 186° South  Level FlightAware Approximate
Sun 06:32:00 PM 26.2932 -81.7558 186° South  Level FlightAware Approximate
Sun 06:33:00 PM 26.2567 -81.7600 186° South  Level FlightAware Approximate
Sun 06:34:00 PM 26.2202 -81.7643 186° South  Level FlightAware Approximate
Sun 06:35:00 PM 26.1837 -81.7667 180° South  Level FlightAware Approximate
Sun 06:36:00 PM 26.1500 -81.7667 180° South  Level FlightAware Approximate
Sun 06:37:00 PM 26.1864 -81.7717 180° South  Level Estimated
Sun 06:38:00 PM 26.1500 -81.7667 180° South  Level FlightAware Approximate
Sun 06:39:00 PM 26.1864 -81.7717 180° South  Level Estimated
Sun 06:40:00 PM 26.1500 -81.7667 180° South  Level FlightAware Approximate
Sun 06:41:00 PM 26.1864 -81.7717 180° South  Level Estimated
Sun 06:42:00 PM 26.1500 -81.7667 180° South  Level FlightAware Approximate
Sun 06:43:00 PM 26.1864 -81.7717 180° South  Level Estimated
Sun 06:44:00 PM 26.1500 -81.7667 180° South  Level FlightAware Approximate

Login

Don't have an account? Register now (free) for customized features, flight alerts, and more!